»·PEaware :: TEXAN13 KPDX-KOLM

TEXAN13 :: KPDX-KOLM

FLIGHT INFORMATION

Flight Status: Arrived
Operator: Unknown
More flights by this operator :: More flights under this callsign
Pilot: Indie I. (23334)
Aircraft: BEECH AIRCRAFT T-6A TEXAN
(TEX2)
More flights by this aircraft type
Origin: KPDX Portland Intl
United States
Destination: KOLM Olympia
United States
More flights between these airports :: More routes between these airports
Route: +PTLD1 OLM
File this flight plan on PilotEdge
Remarks: PDX to OLM IFR - depart VFR to KBFI
Altitude:
(Current/Filed)
8,000ft
Speed:
(Current/Filed)
240kts
Departed: 19-Jun-20 07:42 AM
Arrived: 19-Jun-20 08:18 AM
Distance/Time
Traveled:
84nm/0:36
Distance/Time
To Go:
Arrived

Flight Plot

Page will automatically refresh every two minutes.


Map Options




Map Legend


Flown Route
Filed Route
Departure Airport
Arrival Airport
Navaid (VOR, NDB)
Fix

Horizontal Profiles

Position Reports

Time Latitude Longitude Heading Altitude Ground
Speed
19-Jun-20 07:28 45.591252 -122.592665 58 33ft 0kts
19-Jun-20 07:29 45.591253 -122.592662 58 33ft 0kts
19-Jun-20 07:30 45.591255 -122.592659 58 33ft 0kts
19-Jun-20 07:31 45.591256 -122.592657 58 33ft 0kts
19-Jun-20 07:32 45.591257 -122.592654 58 33ft 0kts
19-Jun-20 07:33 45.591258 -122.592651 58 33ft 0kts
19-Jun-20 07:34 45.591260 -122.592648 58 33ft 0kts
19-Jun-20 07:35 45.591625 -122.592750 303 33ft 11kts
19-Jun-20 07:36 45.592468 -122.592766 41 33ft 7kts
19-Jun-20 07:37 45.594124 -122.596357 299 33ft 14kts
19-Jun-20 07:38 45.594729 -122.597141 37 33ft 0kts
19-Jun-20 07:39 45.594730 -122.597139 37 33ft 0kts
19-Jun-20 07:40 45.595060 -122.596399 98 33ft 8kts
19-Jun-20 07:41 45.592403 -122.589457 118 68ft 105kts
19-Jun-20 07:42 45.587137 -122.533514 75 2474ft 168kts
19-Jun-20 07:43 45.603222 -122.466751 43 5276ft 193kts
19-Jun-20 07:44 45.655575 -122.471010 339 8074ft 203kts
19-Jun-20 07:45 45.715097 -122.503675 339 8002ft 237kts
19-Jun-20 07:46 45.777661 -122.535021 342 7972ft 240kts
19-Jun-20 07:47 45.842067 -122.560252 346 7941ft 239kts
19-Jun-20 07:48 45.906643 -122.583285 345 7982ft 238kts
19-Jun-20 07:49 45.970938 -122.608055 344 8000ft 240kts
19-Jun-20 07:50 46.035130 -122.635360 343 7981ft 240kts
19-Jun-20 07:51 46.099269 -122.661497 343 7988ft 240kts
19-Jun-20 07:52 46.164612 -122.681645 349 7992ft 241kts
19-Jun-20 07:54 46.230578 -122.698320 351 7991ft 241kts
19-Jun-20 07:55 46.296847 -122.710914 353 8001ft 240kts
19-Jun-20 07:56 46.363271 -122.724052 350 8010ft 240kts
19-Jun-20 07:57 46.428848 -122.742361 345 8014ft 240kts
19-Jun-20 07:58 46.494028 -122.765005 347 8031ft 240kts
19-Jun-20 07:59 46.559592 -122.784238 350 8046ft 240kts
19-Jun-20 08:00 46.625442 -122.801258 351 8054ft 240kts
19-Jun-20 08:01 46.691757 -122.816720 347 8050ft 240kts
19-Jun-20 08:02 46.757536 -122.837801 347 7989ft 241kts
19-Jun-20 08:03 46.821209 -122.857123 349 7312ft 221kts
19-Jun-20 08:04 46.880711 -122.874528 345 4985ft 214kts
19-Jun-20 08:05 46.937246 -122.893921 347 3507ft 198kts
19-Jun-20 08:06 46.989622 -122.897096 12 3495ft 186kts
19-Jun-20 08:07 47.037576 -122.876086 16 3504ft 173kts
19-Jun-20 08:08 47.084778 -122.866804 6 3479ft 167kts
19-Jun-20 08:09 47.130473 -122.857265 8 3526ft 166kts
19-Jun-20 08:10 47.171910 -122.881617 329 3033ft 167kts
19-Jun-20 08:10 47.194574 -122.864161 121 2916ft 160kts
19-Jun-20 08:12 47.150069 -122.849800 195 2682ft 155kts
19-Jun-20 08:12 47.118403 -122.862380 195 2409ft 130kts
19-Jun-20 08:13 47.084473 -122.871995 190 2417ft 116kts
19-Jun-20 08:15 47.046549 -122.882735 190 1695ft 119kts
19-Jun-20 08:15 47.019156 -122.890393 190 1103ft 120kts
19-Jun-20 08:16 46.986853 -122.899457 190 442ft 114kts
19-Jun-20 08:17 46.964933 -122.905723 190 209ft 14kts
19-Jun-20 08:18 46.963589 -122.903591 100 209ft 9kts
19-Jun-20 08:19 46.965452 -122.901251 13 209ft 14kts
19-Jun-20 08:20 46.970268 -122.899108 56 209ft 20kts
19-Jun-20 08:21 46.972642 -122.894420 265 209ft 3kts
19-Jun-20 08:22 46.972337 -122.894811 232 209ft 0kts
19-Jun-20 08:23 46.972337 -122.894811 232 209ft 0kts
19-Jun-20 08:24 46.972337 -122.894811 232 209ft 0kts
19-Jun-20 08:25 46.972337 -122.894811 232 209ft 0kts
19-Jun-20 08:26 46.972337 -122.894811 232 209ft 0kts
19-Jun-20 08:27 46.972324 -122.894838 232 209ft 0kts
19-Jun-20 08:28 46.972321 -122.894843 232 209ft 0kts

Navigation Log

Ident Type
Flight plan parsing failed, navigation log unavailable